Time;durP1;ratioP1;P1;durP2;ratioP2;P2;SDS_P1;SDS_P2;PMS_P1;PMS_P2;Temp;Humidity;BMP_temperature;BMP_pressure;BME280_temperature;BME280_humidity;BME280_pressure;Samples;Min_cycle;Max_cycle;Signal;HPM_P1;HPM_P2
2023/03/29 00:01:02;;;;;;;5.50;2.70;;;7.20;70.10;;;;;;4969841;28;20050;-73
2023/03/29 00:03:29;;;;;;;6.45;2.42;;;7.20;70.20;;;;;;4982018;28;20490;-73
2023/03/29 00:06:01;;;;;;;3.55;2.33;;;7.20;70.30;;;;;;5036975;28;20096;-73
2023/03/29 00:08:28;;;;;;;4.70;2.13;;;7.20;70.50;;;;;;4970166;28;20081;-73
2023/03/29 00:10:55;;;;;;;4.97;2.40;;;7.20;70.60;;;;;;4970478;28;20390;-73
2023/03/29 00:13:21;;;;;;;5.60;2.97;;;7.20;70.70;;;;;;4955273;28;20069;-73
2023/03/29 00:15:47;;;;;;;4.13;2.33;;;7.10;70.60;;;;;;4969547;28;20042;-73
2023/03/29 00:18:12;;;;;;;6.05;2.33;;;7.10;70.70;;;;;;4970245;28;20072;-73
2023/03/29 00:20:38;;;;;;;4.53;2.47;;;7.10;70.70;;;;;;5054942;28;20058;-73
2023/03/29 00:23:04;;;;;;;6.43;2.63;;;7.10;70.80;;;;;;4938029;28;20042;-73
2023/03/29 00:25:30;;;;;;;6.03;2.33;;;7.10;70.90;;;;;;4954063;28;20045;-73
2023/03/29 00:27:55;;;;;;;5.53;2.30;;;7.10;71.30;;;;;;4968703;28;20105;-73
2023/03/29 00:30:21;;;;;;;6.05;2.53;;;7.10;71.00;;;;;;4966185;28;20039;-73
2023/03/29 00:32:47;;;;;;;5.82;2.58;;;7.10;71.00;;;;;;4969560;28;20039;-73
2023/03/29 00:35:13;;;;;;;4.43;2.40;;;7.00;70.90;;;;;;4937757;28;20050;-73
2023/03/29 00:37:40;;;;;;;6.28;2.00;;;7.00;71.10;;;;;;4969782;28;20049;-73
2023/03/29 00:40:09;;;;;;;4.85;1.92;;;7.00;71.10;;;;;;5047798;28;20382;-73
2023/03/29 00:42:35;;;;;;;3.85;1.88;;;7.10;71.10;;;;;;5054705;28;20036;-73
2023/03/29 00:45:17;;;;;;;4.60;2.15;;;7.00;71.10;;;;;;4980351;28;20043;-73
2023/03/29 00:47:50;;;;;;;4.00;2.15;;;7.00;71.10;;;;;;4970429;28;20399;-73
2023/03/29 00:50:25;;;;;;;4.95;2.35;;;7.10;71.10;;;;;;5005837;28;20100;-73
2023/03/29 00:53:11;;;;;;;;;;;7.00;71.10;;;;;;4973449;28;20046;-73
2023/03/29 00:55:44;;;;;;;4.55;2.00;;;7.00;70.80;;;;;;5091343;28;20395;-73
2023/03/29 00:58:13;;;;;;;4.30;1.73;;;7.00;71.00;;;;;;5069255;28;20044;-73
2023/03/29 01:00:50;;;;;;;4.88;2.95;;;7.00;71.00;;;;;;5075157;28;20036;-73
2023/03/29 01:03:23;;;;;;;6.20;2.50;;;7.00;71.20;;;;;;4993727;28;20215;-73
2023/03/29 01:05:52;;;;;;;4.32;2.72;;;7.00;71.30;;;;;;4972838;28;20043;-73
2023/03/29 01:08:27;;;;;;;4.00;2.30;;;7.00;71.40;;;;;;4985767;28;20042;-73
2023/03/29 01:10:57;;;;;;;5.80;2.78;;;7.00;71.40;;;;;;4992607;28;20042;-73
2023/03/29 01:13:52;;;;;;;5.00;2.53;;;6.90;71.40;;;;;;4986464;28;20038;-73
2023/03/29 01:16:20;;;;;;;5.82;2.90;;;6.90;71.40;;;;;;4975872;28;20134;-73
2023/03/29 01:18:47;;;;;;;4.35;2.20;;;6.90;71.40;;;;;;4973750;28;20051;-73
2023/03/29 01:21:19;;;;;;;5.53;2.83;;;6.90;71.50;;;;;;5009823;28;20043;-73
2023/03/29 01:24:12;;;;;;;4.55;2.85;;;6.90;71.60;;;;;;5058385;28;20433;-73
2023/03/29 01:27:01;;;;;;;6.00;2.88;;;6.90;71.80;;;;;;5058032;28;20098;-73
2023/03/29 01:29:59;;;;;;;6.55;3.25;;;6.90;71.90;;;;;;4972456;28;20057;-73
2023/03/29 01:32:34;;;;;;;7.50;3.03;;;6.90;71.90;;;;;;4983885;28;20062;-73
2023/03/29 01:35:21;;;;;;;6.35;3.30;;;6.80;71.90;;;;;;5073394;28;20109;-72
2023/03/29 01:37:55;;;;;;;7.07;3.20;;;6.90;72.00;;;;;;5074320;28;20114;-73
2023/03/29 01:40:21;;;;;;;6.72;3.72;;;6.80;72.00;;;;;;4972731;28;20031;-73
2023/03/29 01:43:10;;;;;;;7.20;3.70;;;6.80;72.10;;;;;;5024959;28;20438;-73
2023/03/29 01:45:49;;;;;;;4.30;2.58;;;6.80;72.20;;;;;;5060027;28;20384;-73
2023/03/29 01:48:26;;;;;;;6.65;3.10;;;6.80;72.20;;;;;;4969699;28;20497;-73
2023/03/29 01:51:03;;;;;;;7.75;3.42;;;6.90;72.30;;;;;;4971922;28;20045;-73
2023/03/29 01:53:46;;;;;;;6.32;3.20;;;6.80;72.30;;;;;;5017044;28;20041;-73
2023/03/29 01:56:18;;;;;;;5.60;3.20;;;6.90;72.80;;;;;;5074071;28;20061;-73
2023/03/29 01:58:51;;;;;;;7.55;3.60;;;6.90;72.40;;;;;;4983348;28;20045;-73
2023/03/29 02:01:24;;;;;;;6.10;3.60;;;6.90;72.50;;;;;;4972046;28;20054;-73
2023/03/29 02:03:54;;;;;;;6.05;2.88;;;6.90;72.50;;;;;;4972009;28;20054;-73
2023/03/29 02:06:23;;;;;;;8.35;3.83;;;6.90;72.40;;;;;;4972179;28;20047;-73
2023/03/29 02:08:51;;;;;;;6.68;3.53;;;6.90;72.50;;;;;;4971899;28;20050;-73
2023/03/29 02:11:18;;;;;;;5.10;3.10;;;6.80;72.50;;;;;;4989444;28;20057;-73
2023/03/29 02:13:43;;;;;;;4.82;3.20;;;6.90;72.50;;;;;;5077071;28;20050;-73
2023/03/29 02:16:11;;;;;;;6.18;3.35;;;6.90;72.60;;;;;;4986031;28;20062;-73
2023/03/29 02:18:39;;;;;;;7.55;4.05;;;6.90;72.60;;;;;;4985834;28;20044;-73
2023/03/29 02:21:07;;;;;;;6.05;3.63;;;6.90;72.50;;;;;;4995749;28;20126;-73
2023/03/29 02:23:44;;;;;;;5.70;3.50;;;6.90;72.50;;;;;;4971782;28;20368;-72
2023/03/29 02:26:13;;;;;;;6.32;3.42;;;6.90;72.50;;;;;;5063300;28;20049;-73
2023/03/29 02:28:40;;;;;;;7.47;3.63;;;6.90;72.40;;;;;;4955584;28;20042;-73
2023/03/29 02:31:30;;;;;;;5.85;3.85;;;6.90;72.40;;;;;;4989417;28;20040;-73
2023/03/29 02:34:10;;;;;;;6.25;3.92;;;6.90;72.50;;;;;;5073444;28;20052;-73
2023/03/29 02:36:45;;;;;;;6.68;3.75;;;6.90;72.50;;;;;;4973253;28;20039;-73
2023/03/29 02:39:14;;;;;;;9.02;4.18;;;6.90;72.50;;;;;;5089341;28;20066;-73
2023/03/29 02:41:43;;;;;;;8.85;4.28;;;6.90;72.50;;;;;;4991064;28;20038;-73
2023/03/29 02:44:15;;;;;;;7.18;4.13;;;6.90;72.50;;;;;;4991404;28;20042;-72
2023/03/29 02:46:42;;;;;;;9.30;3.92;;;6.90;72.60;;;;;;4972763;28;20034;-73
2023/03/29 02:49:11;;;;;;;6.30;3.72;;;6.80;72.60;;;;;;5061004;28;20044;-72
2023/03/29 02:51:37;;;;;;;6.60;3.70;;;6.80;72.70;;;;;;5044139;28;20096;-73
2023/03/29 02:54:17;;;;;;;7.78;3.95;;;6.80;72.80;;;;;;5072937;28;20050;-73
2023/03/29 02:56:58;;;;;;;7.65;3.95;;;6.90;72.90;;;;;;4971188;28;20078;-73
2023/03/29 02:59:25;;;;;;;6.68;4.20;;;6.80;73.00;;;;;;5053044;28;20380;-73
2023/03/29 03:01:51;;;;;;;9.10;4.22;;;6.80;72.90;;;;;;5036805;28;20248;-72
2023/03/29 03:04:19;;;;;;;6.55;3.92;;;6.80;72.90;;;;;;4997226;28;20122;-73
2023/03/29 03:06:45;;;;;;;6.63;3.50;;;6.80;72.90;;;;;;4955423;28;20043;-73
2023/03/29 03:09:11;;;;;;;9.95;4.00;;;6.90;73.10;;;;;;4986218;28;20042;-73
2023/03/29 03:11:37;;;;;;;5.30;3.17;;;6.80;73.00;;;;;;4970212;28;20043;-73
2023/03/29 03:14:04;;;;;;;6.95;4.10;;;6.90;73.10;;;;;;4970992;28;20390;-73
2023/03/29 03:16:30;;;;;;;6.95;4.25;;;6.90;73.20;;;;;;4971109;28;20050;-73
2023/03/29 03:18:56;;;;;;;7.13;4.00;;;6.80;73.10;;;;;;4955219;28;20043;-73
2023/03/29 03:21:22;;;;;;;6.28;4.15;;;6.80;73.10;;;;;;4971642;28;20517;-73
2023/03/29 03:23:48;;;;;;;6.72;3.78;;;6.80;73.20;;;;;;5004444;28;20064;-73
2023/03/29 03:26:16;;;;;;;6.13;3.90;;;6.80;73.30;;;;;;5072324;28;20040;-73
2023/03/29 03:28:42;;;;;;;6.50;3.95;;;6.80;73.30;;;;;;5072441;28;20370;-73
2023/03/29 03:31:08;;;;;;;6.55;3.85;;;6.90;73.40;;;;;;5055903;28;20562;-73
2023/03/29 03:33:34;;;;;;;7.88;4.10;;;6.90;73.40;;;;;;5027432;28;20043;-73
2023/03/29 03:36:03;;;;;;;7.85;3.92;;;6.90;73.30;;;;;;4938443;28;20070;-73
2023/03/29 03:38:29;;;;;;;8.60;3.92;;;6.90;73.40;;;;;;4970998;28;20046;-73
2023/03/29 03:40:56;;;;;;;6.38;3.67;;;6.90;73.30;;;;;;4979730;28;20042;-73
2023/03/29 03:43:22;;;;;;;8.50;3.67;;;6.90;73.30;;;;;;4970652;28;20433;-73
2023/03/29 03:45:48;;;;;;;6.32;3.90;;;6.90;73.40;;;;;;4970674;28;20038;-73
2023/03/29 03:48:14;;;;;;;8.05;4.32;;;6.90;73.40;;;;;;4954094;28;20091;-73
2023/03/29 03:50:40;;;;;;;5.13;3.75;;;6.90;73.30;;;;;;4991773;28;20037;-73
2023/03/29 03:53:06;;;;;;;5.00;3.60;;;6.90;73.30;;;;;;4973826;28;20498;-73
2023/03/29 03:55:32;;;;;;;6.00;4.07;;;6.90;73.30;;;;;;4978439;28;20096;-73
2023/03/29 03:57:58;;;;;;;5.82;4.10;;;6.90;73.40;;;;;;4987583;28;20121;-73
2023/03/29 04:00:25;;;;;;;9.10;4.63;;;6.90;73.40;;;;;;4970262;28;20038;-72
2023/03/29 04:02:53;;;;;;;7.97;4.50;;;6.90;73.40;;;;;;4985936;28;20038;-72
2023/03/29 04:05:18;;;;;;;5.65;3.70;;;6.90;73.40;;;;;;5020526;28;20038;-73
2023/03/29 04:07:45;;;;;;;7.30;4.03;;;7.00;73.50;;;;;;5054928;28;20053;-73
2023/03/29 04:10:10;;;;;;;8.40;4.32;;;7.00;73.60;;;;;;5055033;28;20050;-73
2023/03/29 04:12:37;;;;;;;10.23;4.53;;;7.00;73.60;;;;;;4970157;28;20432;-73
2023/03/29 04:15:03;;;;;;;5.93;3.92;;;7.00;73.60;;;;;;5056035;28;20482;-73
2023/03/29 04:17:29;;;;;;;6.93;3.90;;;7.00;73.60;;;;;;4970243;28;20386;-74
2023/03/29 04:19:55;;;;;;;5.43;3.70;;;7.00;73.60;;;;;;4954436;28;20133;-73
2023/03/29 04:22:20;;;;;;;7.15;3.90;;;7.00;73.60;;;;;;5002021;28;20683;-73
2023/03/29 04:24:46;;;;;;;7.28;4.15;;;7.00;73.60;;;;;;4969799;28;20043;-73
2023/03/29 04:27:12;;;;;;;7.50;3.92;;;7.00;73.70;;;;;;4953947;28;20129;-73
2023/03/29 04:29:37;;;;;;;8.60;4.43;;;7.00;73.70;;;;;;4965291;28;20058;-73
2023/03/29 04:32:03;;;;;;;6.50;4.05;;;7.00;73.70;;;;;;4978664;28;20387;-73
2023/03/29 04:34:29;;;;;;;7.32;3.83;;;7.10;73.70;;;;;;4969851;28;20074;-73
2023/03/29 04:36:55;;;;;;;5.55;3.45;;;7.10;73.70;;;;;;4969880;28;20046;-73
2023/03/29 04:39:20;;;;;;;5.82;3.88;;;7.10;73.80;;;;;;5002454;28;20047;-73
2023/03/29 04:41:47;;;;;;;6.22;4.18;;;7.10;73.80;;;;;;5053943;28;20047;-73
2023/03/29 04:44:13;;;;;;;5.97;3.78;;;7.10;73.90;;;;;;4959820;28;20513;-73
2023/03/29 04:46:39;;;;;;;10.45;4.75;;;7.20;74.10;;;;;;4953762;28;20047;-73
2023/03/29 04:49:05;;;;;;;7.75;4.40;;;7.20;74.20;;;;;;5009205;28;20545;-73
2023/03/29 04:51:32;;;;;;;10.38;4.93;;;7.20;74.30;;;;;;5018603;28;20074;-73
2023/03/29 04:53:58;;;;;;;7.38;4.47;;;7.20;74.50;;;;;;4969050;28;20636;-73
2023/03/29 04:56:23;;;;;;;7.63;4.97;;;7.20;74.60;;;;;;4958371;28;20043;-73
2023/03/29 04:58:50;;;;;;;9.38;5.20;;;7.20;74.80;;;;;;4952581;28;20038;-74
2023/03/29 05:01:16;;;;;;;6.60;4.05;;;7.20;74.90;;;;;;4953135;28;20039;-73
2023/03/29 05:03:42;;;;;;;6.25;4.60;;;7.30;75.20;;;;;;5002041;28;20046;-73
2023/03/29 05:06:10;;;;;;;7.75;4.32;;;7.30;75.20;;;;;;5001864;28;20130;-73
2023/03/29 05:08:38;;;;;;;8.57;4.78;;;7.30;75.20;;;;;;4994901;28;20083;-73
2023/03/29 05:11:09;;;;;;;7.65;4.70;;;7.30;75.30;;;;;;4979008;28;20104;-73
2023/03/29 05:13:35;;;;;;;7.80;5.00;;;7.30;75.50;;;;;;4969225;28;20046;-73
2023/03/29 05:16:01;;;;;;;10.15;4.57;;;7.20;75.40;;;;;;5009575;28;20045;-74
2023/03/29 05:18:28;;;;;;;9.48;4.88;;;7.30;75.50;;;;;;4937082;28;20540;-73
2023/03/29 05:20:54;;;;;;;9.63;6.30;;;7.30;75.60;;;;;;4968820;28;20058;-73
2023/03/29 05:23:21;;;;;;;8.82;5.75;;;7.30;75.60;;;;;;4962417;28;20035;-74
2023/03/29 05:25:51;;;;;;;7.22;4.68;;;7.30;75.80;;;;;;5071165;28;20047;-74
2023/03/29 05:28:18;;;;;;;7.60;5.28;;;7.30;75.80;;;;;;5038242;28;20051;-73
2023/03/29 05:30:44;;;;;;;8.63;5.45;;;7.40;75.90;;;;;;4959825;28;20077;-74
2023/03/29 05:33:10;;;;;;;8.48;5.43;;;7.30;76.00;;;;;;4969171;28;20050;-74
2023/03/29 05:35:36;;;;;;;10.65;6.38;;;7.40;75.90;;;;;;4995539;28;20047;-73
2023/03/29 05:38:03;;;;;;;9.88;6.00;;;7.30;75.90;;;;;;4975661;28;20821;-75
2023/03/29 05:40:30;;;;;;;8.75;4.68;;;7.40;76.10;;;;;;5069793;28;20416;-74
2023/03/29 05:42:58;;;;;;;8.75;5.88;;;7.40;76.10;;;;;;4938725;28;20055;-74
2023/03/29 05:45:27;;;;;;;9.05;5.43;;;7.40;76.10;;;;;;4940663;28;20143;-73
2023/03/29 05:47:53;;;;;;;10.00;5.85;;;7.40;76.20;;;;;;4972231;28;20047;-73
2023/03/29 05:50:18;;;;;;;8.38;5.93;;;7.40;76.40;;;;;;4940576;28;20054;-73
2023/03/29 05:52:44;;;;;;;9.50;5.68;;;7.40;76.40;;;;;;5059928;28;20143;-74
2023/03/29 05:55:10;;;;;;;8.63;5.85;;;7.40;76.50;;;;;;4974523;28;20058;-74
2023/03/29 05:57:36;;;;;;;8.00;5.68;;;7.40;76.60;;;;;;4974243;28;20584;-74
2023/03/29 06:00:13;;;;;;;7.47;5.60;;;7.30;76.60;;;;;;4972399;28;20126;-74
2023/03/29 06:02:40;;;;;;;10.88;5.57;;;7.30;76.70;;;;;;4989939;28;20043;-74
2023/03/29 06:05:06;;;;;;;7.97;5.80;;;7.30;76.90;;;;;;4972218;28;20057;-73
2023/03/29 06:07:32;;;;;;;9.38;5.07;;;7.30;76.90;;;;;;4956113;28;20552;-73
2023/03/29 06:09:58;;;;;;;11.50;5.95;;;7.30;77.00;;;;;;5005386;28;20081;-73
2023/03/29 06:12:25;;;;;;;11.95;6.30;;;7.30;77.20;;;;;;4972150;28;20074;-73
2023/03/29 06:14:50;;;;;;;10.20;6.00;;;7.30;77.40;;;;;;4972011;28;20047;-73
2023/03/29 06:17:16;;;;;;;10.38;6.15;;;7.30;77.50;;;;;;5073837;28;20061;-73
2023/03/29 06:19:43;;;;;;;8.95;5.97;;;7.30;77.60;;;;;;5004532;28;20059;-73
2023/03/29 06:22:09;;;;;;;10.10;6.43;;;7.30;77.60;;;;;;4988298;28;20051;-72
2023/03/29 06:24:34;;;;;;;9.52;5.85;;;7.30;77.70;;;;;;4955798;28;20046;-72
2023/03/29 06:27:00;;;;;;;11.02;6.25;;;7.30;77.70;;;;;;5073417;28;20043;-72
2023/03/29 06:29:25;;;;;;;8.82;6.35;;;7.30;77.80;;;;;;4955582;28;20088;-73
2023/03/29 06:31:53;;;;;;;8.10;6.22;;;7.30;77.80;;;;;;4971651;28;20049;-73
2023/03/29 06:34:19;;;;;;;10.05;6.15;;;7.40;78.00;;;;;;4955516;28;20045;-73
2023/03/29 06:36:45;;;;;;;9.82;5.90;;;7.30;77.90;;;;;;4971516;28;20046;-73
2023/03/29 06:39:11;;;;;;;9.85;6.00;;;7.30;77.90;;;;;;5039402;28;20035;-73
2023/03/29 06:41:37;;;;;;;8.68;6.00;;;7.40;77.90;;;;;;4971621;28;20050;-73
2023/03/29 06:44:04;;;;;;;9.73;6.00;;;7.30;77.90;;;;;;4971849;28;20490;-73
2023/03/29 06:46:29;;;;;;;11.40;5.70;;;7.40;78.00;;;;;;4954419;28;20088;-73
2023/03/29 06:48:55;;;;;;;11.43;6.50;;;7.40;77.90;;;;;;4955538;28;20034;-73
2023/03/29 06:51:21;;;;;;;9.20;6.03;;;7.40;77.90;;;;;;4939377;28;20031;-73
2023/03/29 06:53:47;;;;;;;10.82;6.30;;;7.40;78.10;;;;;;4971150;28;20489;-73
2023/03/29 06:56:13;;;;;;;10.10;6.22;;;7.40;78.00;;;;;;4971253;28;20104;-73
2023/03/29 06:58:39;;;;;;;15.38;6.30;;;7.50;78.10;;;;;;4971515;28;20129;-73
2023/03/29 07:01:05;;;;;;;8.07;5.97;;;7.50;78.10;;;;;;4955524;28;20379;-73
2023/03/29 07:03:34;;;;;;;9.23;6.15;;;7.50;78.10;;;;;;4939282;28;20043;-73
2023/03/29 07:06:08;;;;;;;11.90;6.80;;;7.50;78.20;;;;;;4971300;28;20130;-73
2023/03/29 07:08:42;;;;;;;;;;;7.60;78.30;;;;;;4971870;28;20101;-73
2023/03/29 07:11:13;;;;;;;9.80;6.35;;;7.50;77.80;;;;;;5052801;28;20289;-73
2023/03/29 07:13:42;;;;;;;9.05;6.10;;;7.50;78.10;;;;;;4971049;28;20046;-73
2023/03/29 07:16:12;;;;;;;7.70;5.85;;;7.60;78.20;;;;;;4971287;28;20126;-73
2023/03/29 07:18:40;;;;;;;10.43;6.30;;;7.70;78.30;;;;;;4971061;28;20046;-73
2023/03/29 07:21:06;;;;;;;12.00;6.55;;;7.70;78.20;;;;;;4971070;28;20399;-73
2023/03/29 07:23:32;;;;;;;8.43;5.97;;;7.70;78.30;;;;;;4971075;28;20047;-73
2023/03/29 07:25:58;;;;;;;8.32;6.20;;;7.70;78.20;;;;;;4971256;28;20043;-73
2023/03/29 07:28:24;;;;;;;8.30;5.80;;;7.70;78.20;;;;;;4970893;28;20497;-73
2023/03/29 07:30:50;;;;;;;7.95;6.05;;;7.70;78.20;;;;;;4970908;28;20670;-73
2023/03/29 07:33:16;;;;;;;8.35;6.03;;;7.80;78.30;;;;;;4954632;28;20039;-73
2023/03/29 07:35:43;;;;;;;10.10;6.30;;;7.80;78.30;;;;;;4970558;28;20049;-73
2023/03/29 07:38:09;;;;;;;8.95;5.68;;;7.80;78.30;;;;;;4954990;28;20125;-73
2023/03/29 07:40:35;;;;;;;6.78;5.45;;;7.80;78.20;;;;;;4970787;28;20563;-73
2023/03/29 07:43:06;;;;;;;8.85;6.35;;;7.90;78.20;;;;;;4954649;28;20437;-73
2023/03/29 07:45:32;;;;;;;9.30;6.03;;;7.90;78.20;;;;;;4970708;28;20078;-73
2023/03/29 07:47:58;;;;;;;10.02;6.28;;;7.90;78.20;;;;;;4970507;28;20139;-73
2023/03/29 07:50:25;;;;;;;10.32;6.35;;;8.00;78.20;;;;;;5038606;28;20053;-73
2023/03/29 07:52:50;;;;;;;9.93;5.93;;;8.00;78.20;;;;;;4970465;28;20498;-73
2023/03/29 07:55:17;;;;;;;8.85;5.45;;;8.00;78.20;;;;;;4970413;28;20059;-74
2023/03/29 07:57:43;;;;;;;10.68;5.88;;;8.10;78.10;;;;;;4954325;28;20046;-73
2023/03/29 08:00:14;;;;;;;12.15;6.55;;;8.10;78.20;;;;;;4970060;28;20073;-73
2023/03/29 08:02:45;;;;;;;10.68;5.30;;;8.10;78.20;;;;;;4970474;28;20077;-73
2023/03/29 08:05:13;;;;;;;8.75;6.03;;;8.20;78.30;;;;;;4970337;28;20047;-73
2023/03/29 08:07:40;;;;;;;8.63;5.22;;;8.20;78.30;;;;;;4970386;28;20090;-73
2023/03/29 08:10:12;;;;;;;10.50;5.47;;;8.20;78.30;;;;;;4970341;28;20047;-73
2023/03/29 08:12:39;;;;;;;7.50;5.30;;;8.30;78.40;;;;;;4970253;28;20086;-73
2023/03/29 08:15:05;;;;;;;10.75;6.13;;;8.30;78.20;;;;;;4954349;28;20427;-73
2023/03/29 08:17:32;;;;;;;12.15;6.13;;;8.40;78.30;;;;;;4970536;28;20043;-73
2023/03/29 08:19:57;;;;;;;8.00;5.70;;;8.40;78.20;;;;;;4954088;28;20034;-73
2023/03/29 08:22:23;;;;;;;8.38;5.97;;;8.40;78.20;;;;;;4970298;28;20096;-73
2023/03/29 08:24:49;;;;;;;11.50;5.63;;;8.50;78.10;;;;;;4954350;28;20130;-73
2023/03/29 08:27:15;;;;;;;7.32;5.57;;;8.60;78.00;;;;;;4953989;28;20181;-73
2023/03/29 08:29:40;;;;;;;9.02;5.47;;;8.60;77.80;;;;;;4953939;28;20062;-73
2023/03/29 08:32:06;;;;;;;9.48;6.03;;;8.70;77.70;;;;;;4953747;28;20089;-73
2023/03/29 08:34:34;;;;;;;8.32;5.82;;;8.70;77.50;;;;;;4938343;28;20096;-73
2023/03/29 08:37:00;;;;;;;9.50;5.40;;;8.70;77.40;;;;;;4954229;28;20042;-73
2023/03/29 08:39:26;;;;;;;7.82;5.60;;;8.80;77.40;;;;;;4969876;28;20054;-73
2023/03/29 08:42:15;;;;;;;9.60;6.10;;;8.80;77.20;;;;;;4969639;28;20035;-73
2023/03/29 08:45:26;;;;;;;8.65;5.75;;;8.90;77.20;;;;;;4969918;28;20046;-73
2023/03/29 08:48:13;;;;;;;10.70;6.90;;;8.90;76.90;;;;;;4959629;28;20396;-73
2023/03/29 08:51:02;;;;;;;9.65;5.05;;;9.00;76.90;;;;;;4969783;28;20050;-73
2023/03/29 08:53:49;;;;;;;12.43;6.22;;;9.00;76.80;;;;;;4953651;28;20482;-74
2023/03/29 08:56:19;;;;;;;13.45;5.93;;;9.10;76.90;;;;;;4969529;28;20360;-74
2023/03/29 08:58:46;;;;;;;8.82;5.72;;;9.20;76.80;;;;;;4969890;28;20039;-74
2023/03/29 09:01:12;;;;;;;10.82;5.40;;;9.20;76.80;;;;;;4953716;28;20487;-74
2023/03/29 09:04:01;;;;;;;9.77;6.07;;;9.30;76.70;;;;;;4969605;28;20055;-74
2023/03/29 09:06:27;;;;;;;10.10;5.60;;;9.40;76.70;;;;;;4969503;28;20046;-74
2023/03/29 09:08:53;;;;;;;7.50;5.47;;;9.40;76.60;;;;;;4970925;28;20035;-74
2023/03/29 09:12:02;;;;;;;8.18;5.15;;;9.50;76.50;;;;;;4973055;28;20038;-74
2023/03/29 09:14:40;;;;;;;8.05;5.65;;;9.60;76.20;;;;;;4956921;28;20043;-74
2023/03/29 09:17:45;;;;;;;10.50;6.13;;;9.70;76.20;;;;;;4973067;28;20050;-74
2023/03/29 09:20:19;;;;;;;11.30;6.15;;;9.70;75.80;;;;;;4973001;28;20047;-74
2023/03/29 09:23:24;;;;;;;10.18;6.25;;;9.80;75.80;;;;;;4972662;28;20054;-74
2023/03/29 09:26:05;;;;;;;8.93;5.85;;;9.90;75.80;;;;;;4973126;28;20086;-74
2023/03/29 09:28:46;;;;;;;8.40;5.07;;;10.00;76.00;;;;;;4972813;28;20038;-74
2023/03/29 09:31:18;;;;;;;11.30;6.50;;;10.10;75.40;;;;;;4972753;28;20042;-74
2023/03/29 09:33:57;;;;;;;9.82;6.40;;;10.10;75.10;;;;;;4972638;28;20038;-74
2023/03/29 09:36:33;;;;;;;11.82;5.97;;;10.20;75.00;;;;;;4972458;28;20053;-74
2023/03/29 09:38:59;;;;;;;9.00;6.10;;;10.30;75.00;;;;;;5074610;28;20039;-74
2023/03/29 09:41:37;;;;;;;8.55;6.55;;;10.30;74.90;;;;;;4972681;28;20047;-74
2023/03/29 09:44:09;;;;;;;13.35;8.00;;;10.40;74.60;;;;;;4972841;28;20465;-74
2023/03/29 09:46:52;;;;;;;8.82;7.07;;;10.50;74.40;;;;;;4972454;28;20051;-74
2023/03/29 09:49:24;;;;;;;14.93;8.60;;;10.60;74.20;;;;;;4956022;28;20047;-74
2023/03/29 09:51:50;;;;;;;12.88;8.40;;;10.60;74.10;;;;;;4972656;28;20436;-74
2023/03/29 09:54:15;;;;;;;12.30;8.02;;;10.70;73.90;;;;;;5040434;28;20100;-74
2023/03/29 09:56:41;;;;;;;13.90;8.63;;;10.70;73.80;;;;;;4972531;28;20498;-74
2023/03/29 09:59:11;;;;;;;10.77;7.90;;;10.70;74.10;;;;;;4972202;28;20045;-74
2023/03/29 10:01:44;;;;;;;12.35;7.88;;;10.80;73.60;;;;;;4972307;28;20039;-74
2023/03/29 10:04:11;;;;;;;11.45;8.18;;;10.80;73.50;;;;;;4971849;28;20088;-74
2023/03/29 10:06:46;;;;;;;11.48;8.55;;;10.90;73.40;;;;;;4971946;28;20510;-74
2023/03/29 10:09:25;;;;;;;10.95;7.57;;;11.00;73.40;;;;;;4956020;28;20043;-74
2023/03/29 10:11:55;;;;;;;12.60;8.40;;;11.00;73.30;;;;;;4972233;28;20043;-74
2023/03/29 10:14:47;;;;;;;13.23;8.73;;;11.00;73.20;;;;;;4972262;28;20043;-74
2023/03/29 10:17:17;;;;;;;12.30;9.23;;;11.00;73.00;;;;;;4972209;28;20440;-74
2023/03/29 10:19:56;;;;;;;11.75;9.00;;;11.10;73.40;;;;;;4955698;28;20026;-74
2023/03/29 10:22:30;;;;;;;12.50;8.93;;;11.20;73.40;;;;;;4944470;28;20039;-74
2023/03/29 10:24:56;;;;;;;12.77;8.77;;;11.20;73.40;;;;;;4972026;28;20603;-74
2023/03/29 10:27:33;;;;;;;11.35;9.07;;;11.20;73.60;;;;;;4972093;28;20042;-74
2023/03/29 10:30:06;;;;;;;13.45;9.23;;;11.40;73.70;;;;;;4972004;28;20046;-74
2023/03/29 10:32:34;;;;;;;12.77;8.80;;;11.40;73.80;;;;;;4972118;28;20125;-74
2023/03/29 10:35:40;;;;;;;13.30;9.40;;;11.50;73.90;;;;;;4972692;28;20410;-74
2023/03/29 10:38:12;;;;;;;15.23;9.43;;;11.60;73.80;;;;;;4883386;29;20102;-76
2023/03/29 10:40:49;;;;;;;14.30;9.60;;;11.60;73.60;;;;;;4960547;28;20047;-77
2023/03/29 10:55:13;;;;;;;11.05;9.18;;;12.00;73.60;;;;;;5270171;22;20060;-75
2023/03/29 10:57:45;;;;;;;12.77;8.80;;;12.10;73.60;;;;;;5018912;28;20479;-75
2023/03/29 11:00:39;;;;;;;11.13;8.15;;;12.20;73.60;;;;;;5049995;28;20040;-75
2023/03/29 11:03:31;;;;;;;11.02;8.35;;;12.30;73.50;;;;;;5006918;28;20072;-75
2023/03/29 11:06:06;;;;;;;12.02;8.40;;;12.40;73.50;;;;;;5049028;28;20120;-74
2023/03/29 11:08:34;;;;;;;11.93;8.48;;;12.50;73.50;;;;;;5034350;28;20457;-75
2023/03/29 11:11:22;;;;;;;14.73;9.50;;;12.60;73.40;;;;;;5056909;28;20098;-75
2023/03/29 11:14:12;;;;;;;13.23;9.18;;;12.80;73.80;;;;;;5036103;28;20045;-75
2023/03/29 11:16:56;;;;;;;10.32;8.57;;;12.90;73.10;;;;;;5027325;28;20487;-75
2023/03/29 11:19:35;;;;;;;12.97;9.03;;;13.00;72.30;;;;;;5014504;28;20492;-75
2023/03/29 11:22:22;;;;;;;11.35;8.15;;;13.10;71.90;;;;;;4999255;28;20076;-75
2023/03/29 11:25:03;;;;;;;11.05;8.77;;;13.20;71.90;;;;;;5032290;28;20068;-75
2023/03/29 11:28:10;;;;;;;10.57;8.95;;;13.30;71.20;;;;;;5031279;28;20435;-75
2023/03/29 11:30:41;;;;;;;11.95;9.60;;;13.40;70.80;;;;;;5007792;28;20514;-75
2023/03/29 11:33:29;;;;;;;10.77;8.60;;;13.50;70.80;;;;;;5015188;28;20132;-75
2023/03/29 11:36:27;;;;;;;11.45;9.77;;;13.50;70.50;;;;;;4996328;28;20195;-75
2023/03/29 11:38:52;;;;;;;10.77;8.63;;;13.60;70.50;;;;;;5015909;28;20388;-75
2023/03/29 11:41:25;;;;;;;11.02;8.10;;;13.70;70.40;;;;;;5016020;28;20033;-75
2023/03/29 11:43:57;;;;;;;10.80;7.93;;;13.70;69.70;;;;;;5015923;28;20060;-75
2023/03/29 11:46:36;;;;;;;9.48;7.32;;;13.80;69.50;;;;;;5024224;28;20037;-75
2023/03/29 11:49:10;;;;;;;10.23;7.22;;;13.90;69.10;;;;;;5035490;28;20048;-75
2023/03/29 11:51:41;;;;;;;;;;;13.90;69.50;;;;;;5019605;28;20049;-75
2023/03/29 11:54:34;;;;;;;11.35;7.95;;;14.00;69.50;;;;;;5050245;28;20293;-75
2023/03/29 11:57:06;;;;;;;10.20;7.68;;;14.00;68.70;;;;;;5015620;28;20403;-75
2023/03/29 11:59:35;;;;;;;9.88;7.28;;;14.10;68.50;;;;;;5048793;28;20149;-75
2023/03/29 12:02:15;;;;;;;9.35;7.28;;;14.10;68.30;;;;;;5015926;28;20048;-76
2023/03/29 12:04:48;;;;;;;9.45;7.15;;;14.20;68.30;;;;;;5012362;28;20095;-75
2023/03/29 12:07:25;;;;;;;8.65;7.18;;;14.20;68.60;;;;;;4995859;28;20045;-75
2023/03/29 12:09:57;;;;;;;11.48;7.80;;;14.30;68.60;;;;;;5028742;28;20524;-75
2023/03/29 12:12:41;;;;;;;10.27;7.18;;;14.30;68.20;;;;;;5002915;28;20042;-75
2023/03/29 12:15:28;;;;;;;8.77;7.07;;;14.40;67.60;;;;;;5015248;28;20038;-75
2023/03/29 12:18:14;;;;;;;11.43;8.25;;;14.40;67.60;;;;;;5015393;28;20045;-75
2023/03/29 12:20:40;;;;;;;9.15;7.28;;;14.40;67.50;;;;;;5015551;28;20053;-75
2023/03/29 12:23:07;;;;;;;11.05;7.63;;;14.40;67.90;;;;;;5025323;28;20049;-75
2023/03/29 12:25:51;;;;;;;12.40;8.75;;;14.50;68.10;;;;;;5035317;28;20451;-75
2023/03/29 12:29:06;;;;;;;9.85;7.25;;;14.50;68.00;;;;;;5035022;28;20083;-75
2023/03/29 12:32:09;;;;;;;11.63;7.82;;;14.60;68.00;;;;;;5009347;28;20076;-75
2023/03/29 12:34:58;;;;;;;12.40;7.68;;;14.60;67.90;;;;;;4992659;28;20049;-75
2023/03/29 12:37:47;;;;;;;12.07;8.35;;;14.60;67.80;;;;;;5001075;28;20138;-75
2023/03/29 12:40:18;;;;;;;11.05;8.20;;;14.70;67.70;;;;;;5056154;28;20071;-75
2023/03/29 12:43:06;;;;;;;12.05;9.15;;;14.70;67.70;;;;;;5041248;28;20036;-75
2023/03/29 12:45:37;;;;;;;11.57;7.72;;;14.80;67.40;;;;;;5012842;28;20029;-75
2023/03/29 12:48:04;;;;;;;12.73;8.77;;;14.80;67.40;;;;;;5046151;28;20056;-75
2023/03/29 12:50:34;;;;;;;13.82;9.85;;;14.80;67.30;;;;;;5046106;28;20063;-75
2023/03/29 12:53:25;;;;;;;12.25;9.25;;;14.90;67.40;;;;;;5030238;28;20091;-75
2023/03/29 12:56:03;;;;;;;13.45;10.23;;;14.90;67.40;;;;;;4996822;28;20111;-75
2023/03/29 12:58:38;;;;;;;14.05;9.82;;;15.00;67.20;;;;;;5013977;28;20066;-75
2023/03/29 13:01:05;;;;;;;13.85;9.55;;;15.00;66.50;;;;;;5045956;28;20044;-75
2023/03/29 13:03:41;;;;;;;14.45;10.15;;;15.10;66.60;;;;;;4996375;28;20045;-76
2023/03/29 13:06:09;;;;;;;12.20;10.60;;;15.10;66.50;;;;;;4996639;28;20419;-75
2023/03/29 13:08:38;;;;;;;14.20;10.65;;;15.20;66.50;;;;;;5012993;28;20124;-75
2023/03/29 13:11:05;;;;;;;16.27;10.85;;;15.20;66.20;;;;;;5012680;28;20551;-75
2023/03/29 13:13:39;;;;;;;14.23;10.25;;;15.20;65.60;;;;;;5045186;28;20053;-75
2023/03/29 13:16:10;;;;;;;;;;;15.30;65.20;;;;;;5012765;28;20095;-75
2023/03/29 13:19:00;;;;;;;14.43;9.65;;;15.30;66.10;;;;;;5012400;28;19917;-75
2023/03/29 13:21:39;;;;;;;13.13;9.25;;;15.30;65.30;;;;;;5006234;28;20045;-75
2023/03/29 13:24:24;;;;;;;12.63;8.90;;;15.40;65.30;;;;;;5044970;28;20488;-75
2023/03/29 13:27:01;;;;;;;;;;;15.40;65.20;;;;;;5029365;28;20041;-76